createdAt,value
2022-11-06T00:00:46.456Z,100.00
2022-11-06T00:03:48.959Z,100.00
2022-11-06T00:06:50.736Z,100.00
2022-11-06T00:09:53.099Z,100.00
2022-11-06T00:12:55.558Z,100.00
2022-11-06T00:16:03.519Z,100.00
2022-11-06T00:19:06.414Z,100.00
2022-11-06T00:22:08.861Z,100.00
2022-11-06T00:25:11.669Z,100.00
2022-11-06T00:28:14.539Z,100.00
2022-11-06T00:31:24.092Z,100.00
2022-11-06T00:34:26.602Z,100.00
2022-11-06T00:37:29.141Z,100.00
2022-11-06T00:40:31.662Z,100.00
2022-11-06T00:43:35.754Z,100.00
2022-11-06T00:46:39.593Z,100.00
2022-11-06T00:49:42.153Z,100.00
2022-11-06T00:52:44.873Z,100.00
2022-11-06T00:55:47.352Z,100.00
2022-11-06T00:58:49.844Z,100.00
2022-11-06T01:01:53.721Z,100.00
2022-11-06T01:04:56.273Z,100.00
2022-11-06T01:07:58.723Z,100.00
2022-11-06T01:11:07.439Z,100.00
2022-11-06T01:14:12.754Z,100.00
2022-11-06T01:17:16.569Z,100.00
2022-11-06T01:20:19.161Z,100.00
2022-11-06T01:23:21.703Z,100.00
2022-11-06T01:26:37.203Z,100.00
2022-11-06T01:29:41.002Z,100.00
2022-11-06T01:32:44.785Z,100.00
2022-11-06T01:35:48.327Z,100.00
2022-11-06T01:38:53.367Z,100.00
2022-11-06T01:41:56.282Z,100.00
2022-11-06T01:45:34.444Z,100.00
2022-11-06T01:48:40.564Z,100.00
2022-11-06T01:51:48.419Z,100.00
2022-11-06T01:55:01.689Z,100.00
2022-11-06T01:58:06.687Z,100.00
2022-11-06T02:01:09.342Z,100.00
2022-11-06T02:04:16.778Z,100.00
2022-11-06T02:07:20.788Z,100.00
2022-11-06T02:10:23.543Z,100.00
2022-11-06T02:13:38.536Z,100.00
2022-11-06T02:16:47.738Z,100.00
2022-11-06T02:20:02.245Z,100.00
2022-11-06T02:23:26.217Z,100.00
2022-11-06T02:26:47.062Z,100.00
2022-11-06T02:29:57.445Z,100.00
2022-11-06T02:33:03.997Z,100.00
2022-11-06T02:36:10.909Z,100.00
2022-11-06T02:39:17.739Z,100.00
2022-11-06T02:42:21.937Z,100.00
2022-11-06T02:45:26.754Z,100.00
2022-11-06T02:48:34.984Z,100.00
2022-11-06T02:51:50.397Z,100.00
2022-11-06T02:54:58.956Z,100.00
2022-11-06T02:58:09.512Z,100.00
2022-11-06T03:01:19.089Z,100.00
2022-11-06T03:04:27.684Z,100.00
2022-11-06T03:07:36.367Z,100.00
2022-11-06T03:10:44.629Z,100.00
2022-11-06T03:13:55.206Z,100.00
2022-11-06T03:17:00.493Z,100.00
2022-11-06T03:20:11.223Z,100.00
2022-11-06T03:23:19.426Z,100.00
2022-11-06T03:26:27.890Z,100.00
2022-11-06T03:29:40.734Z,100.00
2022-11-06T03:32:50.081Z,100.00
2022-11-06T03:35:57.924Z,100.00
2022-11-06T03:39:04.038Z,100.00
2022-11-06T03:42:11.925Z,100.00
2022-11-06T03:45:19.092Z,100.00
2022-11-06T03:48:27.225Z,100.00
2022-11-06T03:51:37.493Z,100.00
2022-11-06T03:54:45.247Z,100.00
2022-11-06T03:57:53.514Z,100.00
2022-11-06T04:00:59.332Z,100.00
2022-11-06T04:04:06.888Z,100.00
2022-11-06T04:07:13.279Z,100.00
2022-11-06T04:10:33.614Z,100.00
2022-11-06T04:13:56.152Z,100.00
2022-11-06T04:17:03.142Z,100.00
2022-11-06T04:20:32.809Z,100.00
2022-11-06T04:23:44.945Z,100.00
2022-11-06T04:26:55.905Z,100.00
2022-11-06T04:30:06.295Z,100.00
2022-11-06T04:33:15.485Z,100.00
2022-11-06T04:36:27.193Z,100.00
2022-11-06T04:39:37.730Z,100.00
2022-11-06T04:42:49.074Z,100.00
2022-11-06T04:45:56.062Z,100.00
2022-11-06T04:49:02.820Z,100.00
2022-11-06T04:52:08.317Z,100.00
2022-11-06T04:55:10.830Z,100.00
2022-11-06T04:58:13.886Z,100.00
2022-11-06T05:01:16.623Z,100.00
2022-11-06T05:04:20.654Z,100.00
2022-11-06T05:07:23.209Z,100.00
2022-11-06T05:10:25.700Z,100.00
2022-11-06T05:13:28.166Z,100.00
2022-11-06T05:16:30.927Z,100.00
2022-11-06T05:19:34.723Z,100.00
2022-11-06T05:23:00.632Z,100.00
2022-11-06T05:26:03.242Z,100.00
2022-11-06T05:29:06.046Z,100.00
2022-11-06T05:32:08.498Z,100.00
2022-11-06T05:35:12.311Z,100.00
2022-11-06T05:38:15.158Z,100.00
2022-11-06T05:41:17.947Z,100.00
2022-11-06T05:44:20.436Z,100.00
2022-11-06T05:47:23.162Z,100.00
2022-11-06T05:50:27.441Z,100.00
2022-11-06T05:53:30.809Z,100.00
2022-11-06T05:56:33.262Z,100.00
2022-11-06T05:59:35.737Z,100.00
2022-11-06T06:02:39.105Z,100.00
2022-11-06T06:05:42.956Z,100.00
2022-11-06T06:08:45.412Z,100.00
2022-11-06T06:11:51.788Z,100.00
2022-11-06T06:14:54.657Z,100.00
2022-11-06T06:17:58.651Z,100.00
2022-11-06T06:21:02.583Z,100.00
2022-11-06T06:24:05.905Z,100.00
2022-11-06T06:27:08.746Z,100.00
2022-11-06T06:30:12.673Z,100.00
2022-11-06T06:33:15.165Z,100.00
2022-11-06T06:36:18.968Z,100.00
2022-11-06T06:39:21.817Z,100.00
2022-11-06T06:42:30.198Z,100.00
2022-11-06T06:45:33.674Z,100.00
2022-11-06T06:48:36.439Z,100.00
2022-11-06T06:51:40.324Z,100.00
2022-11-06T06:54:42.798Z,100.00
2022-11-06T06:57:45.266Z,100.00
2022-11-06T07:00:48.234Z,100.00
2022-11-06T07:03:50.900Z,100.00
2022-11-06T07:06:55.601Z,100.00
2022-11-06T07:09:58.072Z,100.00
2022-11-06T07:13:02.165Z,100.00
2022-11-06T07:16:06.708Z,100.00
2022-11-06T07:19:09.263Z,100.00
2022-11-06T07:22:13.075Z,100.00
2022-11-06T07:25:15.727Z,100.00
2022-11-06T07:28:18.537Z,100.00
2022-11-06T07:31:21.318Z,100.00
2022-11-06T07:34:23.838Z,100.00
2022-11-06T07:37:27.662Z,100.00
2022-11-06T07:40:30.119Z,100.00
2022-11-06T07:43:32.782Z,100.00
2022-11-06T07:46:35.420Z,100.00
2022-11-06T07:49:37.981Z,100.00
2022-11-06T07:52:41.849Z,100.00
2022-11-06T07:55:49.205Z,100.00
2022-11-06T07:58:51.679Z,100.00
2022-11-06T08:01:54.414Z,100.00
2022-11-06T08:04:56.995Z,100.00
2022-11-06T08:08:00.774Z,100.00
2022-11-06T08:11:03.998Z,100.00
2022-11-06T08:14:06.496Z,100.00
2022-11-06T08:17:09.177Z,100.00
2022-11-06T08:20:12.248Z,100.00
2022-11-06T08:23:16.022Z,100.00
2022-11-06T08:26:18.590Z,100.00
2022-11-06T08:29:21.061Z,100.00
2022-11-06T08:32:23.596Z,100.00
2022-11-06T08:35:26.093Z,100.00
2022-11-06T08:38:29.919Z,100.00
2022-11-06T08:41:32.377Z,99.66
2022-11-06T08:44:34.850Z,98.13
2022-11-06T08:47:37.315Z,97.60
2022-11-06T08:50:41.405Z,97.08
2022-11-06T08:53:45.315Z,95.83
2022-11-06T08:56:48.896Z,94.19
2022-11-06T08:59:51.330Z,95.96
2022-11-06T09:02:59.027Z,95.43
2022-11-06T09:06:01.604Z,94.95
2022-11-06T09:09:05.721Z,95.13
2022-11-06T09:12:09.011Z,93.35
2022-11-06T09:15:11.794Z,92.67
2022-11-06T09:18:14.363Z,90.06
2022-11-06T09:21:16.895Z,89.42
2022-11-06T09:24:37.180Z,89.45
2022-11-06T09:27:44.291Z,88.63
2022-11-06T09:30:46.839Z,86.21
2022-11-06T09:33:51.026Z,86.15
2022-11-06T09:36:53.542Z,86.65
2022-11-06T09:40:01.787Z,85.25
2022-11-06T09:43:27.344Z,83.16
2022-11-06T09:46:43.899Z,81.75
2022-11-06T09:49:50.810Z,80.75
2022-11-06T09:53:03.075Z,79.97
2022-11-06T09:56:13.891Z,79.23
2022-11-06T09:59:19.794Z,77.22
2022-11-06T10:02:31.856Z,77.21
2022-11-06T10:05:37.998Z,78.33
2022-11-06T10:08:43.830Z,76.00
2022-11-06T10:11:59.242Z,74.97
2022-11-06T10:15:08.534Z,73.38
2022-11-06T10:18:18.656Z,74.67
2022-11-06T10:21:24.884Z,74.56
2022-11-06T10:24:38.373Z,73.61
2022-11-06T10:27:48.027Z,72.93
2022-11-06T10:30:59.970Z,73.44
2022-11-06T10:34:04.345Z,72.38
2022-11-06T10:37:12.705Z,74.05
2022-11-06T10:40:19.503Z,74.32
2022-11-06T10:43:28.401Z,71.94
2022-11-06T10:46:35.880Z,69.71
2022-11-06T10:49:45.654Z,69.13
2022-11-06T10:52:54.674Z,69.80
2022-11-06T10:56:28.747Z,71.19
2022-11-06T10:59:33.129Z,71.17
2022-11-06T11:02:40.620Z,71.13
2022-11-06T11:05:44.664Z,70.42
2022-11-06T11:08:48.863Z,69.68
2022-11-06T11:11:51.362Z,69.66
2022-11-06T11:15:13.651Z,70.85
2022-11-06T11:18:23.019Z,69.87
2022-11-06T11:21:27.809Z,70.70
2022-11-06T11:24:30.643Z,70.23
2022-11-06T11:27:38.309Z,71.18
2022-11-06T11:30:42.158Z,71.58
2022-11-06T11:33:51.893Z,71.59
2022-11-06T11:36:58.117Z,72.02
2022-11-06T11:40:20.817Z,71.54
2022-11-06T11:43:26.186Z,70.80
2022-11-06T11:46:29.981Z,71.55
2022-11-06T11:49:34.025Z,71.83
2022-11-06T11:52:42.668Z,71.79
2022-11-06T11:55:48.963Z,71.81
2022-11-06T11:58:54.281Z,71.04
2022-11-06T12:02:02.240Z,72.16
2022-11-06T12:05:10.344Z,71.86
2022-11-06T12:08:22.762Z,71.11
2022-11-06T12:11:27.442Z,71.59
2022-11-06T12:14:34.064Z,70.38
2022-11-06T12:17:41.533Z,70.42
2022-11-06T12:20:51.599Z,70.44
2022-11-06T12:23:58.707Z,69.46
2022-11-06T12:27:05.738Z,70.50
2022-11-06T12:30:12.282Z,68.76
2022-11-06T12:33:20.302Z,69.65
2022-11-06T12:36:29.302Z,69.15
2022-11-06T12:39:35.519Z,69.41
2022-11-06T12:42:38.858Z,68.45
2022-11-06T12:46:08.491Z,67.43
2022-11-06T12:49:23.524Z,67.90
2022-11-06T12:52:38.559Z,68.03
2022-11-06T12:55:44.802Z,68.38
2022-11-06T12:59:06.594Z,67.21
2022-11-06T13:02:25.583Z,67.37
2022-11-06T13:05:34.660Z,67.33
2022-11-06T13:08:46.712Z,68.42
2022-11-06T13:11:55.026Z,69.34
2022-11-06T13:15:12.313Z,68.57
2022-11-06T13:18:19.821Z,69.65
2022-11-06T13:21:31.847Z,69.70
2022-11-06T13:24:38.772Z,68.69
2022-11-06T13:27:48.557Z,69.42
2022-11-06T13:30:52.865Z,68.53
2022-11-06T13:33:59.505Z,67.37
2022-11-06T13:37:07.264Z,66.72
2022-11-06T13:40:22.595Z,66.85
2022-11-06T13:43:29.829Z,68.17
2022-11-06T13:46:40.596Z,68.07
2022-11-06T13:49:49.054Z,67.59
2022-11-06T13:52:59.447Z,68.55
2022-11-06T13:56:15.150Z,68.27
2022-11-06T13:59:55.582Z,68.05
2022-11-06T14:03:30.906Z,68.58
2022-11-06T14:06:36.026Z,68.15
2022-11-06T14:09:45.217Z,69.20
2022-11-06T14:12:49.069Z,69.40
2022-11-06T14:16:00.846Z,69.71
2022-11-06T14:19:08.279Z,70.42
2022-11-06T14:22:25.630Z,71.16
2022-11-06T14:26:00.302Z,72.33
2022-11-06T14:29:37.043Z,73.89
2022-11-06T14:32:46.051Z,73.83
2022-11-06T14:35:53.615Z,74.96
2022-11-06T14:38:57.303Z,75.18
2022-11-06T14:42:03.328Z,75.98
2022-11-06T14:45:14.386Z,75.87
2022-11-06T14:48:28.007Z,77.15
2022-11-06T14:51:31.349Z,77.81
2022-11-06T14:54:40.540Z,78.86
2022-11-06T14:57:47.963Z,79.31
2022-11-06T15:00:55.234Z,79.83
2022-11-06T15:04:03.050Z,80.92
2022-11-06T15:07:10.772Z,81.60
2022-11-06T15:10:47.393Z,82.49
2022-11-06T15:13:51.973Z,83.46
2022-11-06T15:17:04.037Z,83.90
2022-11-06T15:20:18.638Z,84.65
2022-11-06T15:23:28.400Z,84.42
2022-11-06T15:26:42.365Z,85.61
2022-11-06T15:29:49.825Z,86.41
2022-11-06T15:32:54.917Z,87.24
2022-11-06T15:36:03.193Z,88.29
2022-11-06T15:39:24.977Z,90.76
2022-11-06T15:42:30.977Z,91.12
2022-11-06T15:45:34.901Z,90.57
2022-11-06T15:48:37.631Z,91.77
2022-11-06T15:51:41.111Z,92.63
2022-11-06T15:54:44.402Z,94.58
2022-11-06T15:57:46.918Z,93.74
2022-11-06T16:00:50.868Z,92.92
2022-11-06T16:03:55.668Z,92.90
2022-11-06T16:06:58.400Z,92.34
2022-11-06T16:10:01.126Z,92.16
2022-11-06T16:13:05.247Z,93.56
2022-11-06T16:16:33.846Z,95.30
2022-11-06T16:19:39.988Z,95.09
2022-11-06T16:22:43.085Z,95.78
2022-11-06T16:25:46.348Z,96.71
2022-11-06T16:28:51.232Z,96.01
2022-11-06T16:32:03.335Z,95.97
2022-11-06T16:35:31.304Z,97.04
2022-11-06T16:38:43.442Z,98.33
2022-11-06T16:42:01.587Z,98.53
2022-11-06T16:45:17.761Z,98.54
2022-11-06T16:48:35.778Z,98.33
2022-11-06T16:51:38.591Z,99.05
2022-11-06T16:54:41.111Z,97.77
2022-11-06T16:57:46.058Z,97.57
2022-11-06T17:00:58.859Z,98.32
2022-11-06T17:04:05.293Z,98.42
2022-11-06T17:07:20.824Z,98.41
2022-11-06T17:10:37.269Z,97.65
2022-11-06T17:13:42.288Z,98.26
2022-11-06T17:16:50.565Z,97.80
2022-11-06T17:19:54.702Z,97.14
2022-11-06T17:22:57.173Z,98.12
2022-11-06T17:26:03.041Z,98.25
2022-11-06T17:29:06.081Z,97.53
2022-11-06T17:32:08.530Z,96.91
2022-11-06T17:35:12.334Z,98.44
2022-11-06T17:38:15.778Z,97.07
2022-11-06T17:41:29.779Z,96.82
2022-11-06T17:44:32.489Z,95.92
2022-11-06T17:47:35.032Z,95.56
2022-11-06T17:50:52.821Z,95.63
2022-11-06T17:53:55.267Z,95.11
2022-11-06T17:56:59.715Z,96.87
2022-11-06T18:00:02.209Z,96.32
2022-11-06T18:03:05.231Z,96.83
2022-11-06T18:06:11.609Z,97.08
2022-11-06T18:09:14.769Z,97.11
2022-11-06T18:12:19.250Z,95.99
2022-11-06T18:15:21.696Z,95.99
2022-11-06T18:18:24.571Z,95.42
2022-11-06T18:21:28.550Z,94.37
2022-11-06T18:24:31.042Z,96.45
2022-11-06T18:27:33.517Z,95.72
2022-11-06T18:30:35.976Z,94.60
2022-11-06T18:33:38.522Z,94.91
2022-11-06T18:36:42.323Z,95.85
2022-11-06T18:39:44.902Z,96.00
2022-11-06T18:42:47.360Z,96.91
2022-11-06T18:45:50.446Z,97.36
2022-11-06T18:48:53.068Z,96.53
2022-11-06T18:51:56.896Z,96.72
2022-11-06T18:55:01.003Z,95.29
2022-11-06T18:58:03.634Z,95.54
2022-11-06T19:01:07.080Z,95.06
2022-11-06T19:04:10.955Z,95.38
2022-11-06T19:07:18.429Z,96.07
2022-11-06T19:10:20.906Z,96.40
2022-11-06T19:13:23.608Z,95.97
2022-11-06T19:16:26.323Z,96.54
2022-11-06T19:19:28.958Z,97.78
2022-11-06T19:22:33.870Z,95.98
2022-11-06T19:25:36.314Z,93.86
2022-11-06T19:28:40.283Z,95.21
2022-11-06T19:31:43.036Z,96.58
2022-11-06T19:34:45.504Z,95.37
2022-11-06T19:37:49.372Z,96.23
2022-11-06T19:40:56.157Z,95.65
2022-11-06T19:43:58.791Z,95.05
2022-11-06T19:47:01.286Z,95.65
2022-11-06T19:50:05.095Z,95.30
2022-11-06T19:53:08.896Z,95.15
2022-11-06T19:56:16.448Z,96.02
2022-11-06T19:59:19.168Z,94.42
2022-11-06T20:02:21.831Z,94.57
2022-11-06T20:05:24.431Z,94.93
2022-11-06T20:08:28.253Z,95.17
2022-11-06T20:11:30.713Z,94.68
2022-11-06T20:14:33.316Z,94.61
2022-11-06T20:17:35.805Z,94.72
2022-11-06T20:20:38.320Z,94.12
2022-11-06T20:23:42.162Z,94.57
2022-11-06T20:26:44.681Z,95.16
2022-11-06T20:29:47.149Z,94.87
2022-11-06T20:32:49.759Z,95.27
2022-11-06T20:35:52.315Z,94.48
2022-11-06T20:38:59.014Z,94.41
2022-11-06T20:42:01.462Z,94.20
2022-11-06T20:45:04.181Z,94.83
2022-11-06T20:48:09.079Z,94.70
2022-11-06T20:51:14.538Z,94.67
2022-11-06T20:54:18.614Z,95.91
2022-11-06T20:57:21.080Z,95.35
2022-11-06T21:00:23.601Z,95.50
2022-11-06T21:03:26.051Z,95.72
2022-11-06T21:06:29.953Z,95.82
2022-11-06T21:09:33.788Z,96.12
2022-11-06T21:12:36.238Z,95.55
2022-11-06T21:15:38.730Z,95.95
2022-11-06T21:18:42.011Z,96.24
2022-11-06T21:21:44.550Z,95.72
2022-11-06T21:24:48.334Z,96.35
2022-11-06T21:27:50.769Z,96.84
2022-11-06T21:30:53.732Z,96.06
2022-11-06T21:33:58.686Z,96.02
2022-11-06T21:37:02.817Z,96.08
2022-11-06T21:40:09.650Z,96.29
2022-11-06T21:43:12.470Z,95.62
2022-11-06T21:46:15.684Z,96.14
2022-11-06T21:49:18.346Z,96.26
2022-11-06T21:52:39.086Z,96.55
2022-11-06T21:56:01.843Z,96.32
2022-11-06T21:59:05.962Z,95.52
2022-11-06T22:02:10.254Z,95.77
2022-11-06T22:05:12.873Z,96.52
2022-11-06T22:08:15.608Z,96.07
2022-11-06T22:11:22.077Z,95.98
2022-11-06T22:14:24.700Z,95.90
2022-11-06T22:17:27.273Z,95.93
2022-11-06T22:20:29.784Z,96.46
2022-11-06T22:23:32.443Z,95.63
2022-11-06T22:26:37.749Z,95.20
2022-11-06T22:29:40.329Z,96.29
2022-11-06T22:32:42.964Z,96.04
2022-11-06T22:35:45.441Z,95.88
2022-11-06T22:38:48.759Z,95.39
2022-11-06T22:41:52.767Z,95.67
2022-11-06T22:44:55.302Z,95.10
2022-11-06T22:47:58.122Z,95.40
2022-11-06T22:51:02.958Z,95.15
2022-11-06T22:54:06.056Z,95.40
2022-11-06T22:57:10.039Z,94.80
2022-11-06T23:00:14.081Z,95.51
2022-11-06T23:03:16.902Z,96.04
2022-11-06T23:06:19.623Z,96.82
2022-11-06T23:09:22.085Z,96.51
2022-11-06T23:12:25.864Z,96.23
2022-11-06T23:15:28.353Z,95.34
2022-11-06T23:18:30.853Z,95.46
2022-11-06T23:21:33.317Z,96.22
2022-11-06T23:24:35.812Z,95.72
2022-11-06T23:27:43.284Z,96.43
2022-11-06T23:30:48.113Z,95.70
2022-11-06T23:33:50.862Z,95.41
2022-11-06T23:36:53.336Z,95.75
2022-11-06T23:39:55.800Z,96.16
2022-11-06T23:42:59.601Z,95.26
2022-11-06T23:46:01.103Z,95.32
2022-11-06T23:49:03.671Z,95.19
2022-11-06T23:52:06.343Z,95.57
2022-11-06T23:55:09.514Z,95.64
2022-11-06T23:58:13.302Z,95.08
